Time;durP1;ratioP1;P1;durP2;ratioP2;P2;SDS_P1;SDS_P2;PMS_P1;PMS_P2;Temp;Humidity;BMP_temperature;BMP_pressure;BME280_temperature;BME280_humidity;BME280_pressure;Samples;Min_cycle;Max_cycle;Signal;HPM_P1;HPM_P2
2021/08/22 00:01:17;;;;;;;31.20;19.33;;;16.20;93.60;;;;;;4825420;29;20658;-72
2021/08/22 00:03:45;;;;;;;27.45;19.63;;;16.20;93.60;;;;;;4834315;29;20050;-73
2021/08/22 00:06:13;;;;;;;23.50;17.40;;;16.20;93.60;;;;;;4824797;29;20234;-73
2021/08/22 00:08:45;;;;;;;29.85;18.63;;;16.20;93.60;;;;;;4822460;29;20046;-73
2021/08/22 00:11:13;;;;;;;23.35;16.75;;;16.20;93.60;;;;;;4833839;29;20058;-73
2021/08/22 00:13:41;;;;;;;24.27;16.52;;;16.20;93.70;;;;;;4822560;29;20053;-74
2021/08/22 00:16:09;;;;;;;22.50;16.80;;;16.10;93.70;;;;;;4825104;29;20069;-73
2021/08/22 00:18:37;;;;;;;22.75;17.48;;;16.10;93.70;;;;;;4832336;29;20057;-73
2021/08/22 00:21:04;;;;;;;23.55;17.48;;;16.00;93.70;;;;;;4838005;29;20050;-74
2021/08/22 00:23:32;;;;;;;27.75;17.73;;;16.00;93.70;;;;;;4826803;29;20403;-72
2021/08/22 00:26:00;;;;;;;30.88;19.65;;;16.00;93.70;;;;;;4841403;29;20419;-71
2021/08/22 00:28:29;;;;;;;28.90;19.45;;;16.00;93.80;;;;;;4831277;29;20412;-72
2021/08/22 00:30:56;;;;;;;27.63;19.85;;;16.00;93.90;;;;;;4825985;29;20401;-72
2021/08/22 00:33:24;;;;;;;32.05;21.30;;;16.00;93.80;;;;;;4825040;29;20046;-72
2021/08/22 00:35:52;;;;;;;35.17;20.77;;;16.00;93.80;;;;;;4825878;29;20046;-72
2021/08/22 00:38:19;;;;;;;26.98;17.80;;;16.00;93.90;;;;;;4839926;29;20046;-72
2021/08/22 00:40:49;;;;;;;21.05;15.25;;;16.00;93.90;;;;;;4844690;29;20053;-72
2021/08/22 00:43:16;;;;;;;21.17;13.30;;;16.00;93.90;;;;;;4824435;29;20057;-72
2021/08/22 00:45:44;;;;;;;20.55;15.15;;;15.90;93.90;;;;;;4811355;29;20051;-74
2021/08/22 00:48:12;;;;;;;21.98;14.40;;;15.90;93.80;;;;;;4821344;29;20055;-73
2021/08/22 00:50:40;;;;;;;20.58;12.70;;;15.80;93.80;;;;;;4807986;29;20051;-73
2021/08/22 00:53:08;;;;;;;22.52;13.07;;;15.80;93.80;;;;;;4835181;29;20062;-72
2021/08/22 00:55:35;;;;;;;17.08;12.63;;;15.80;93.80;;;;;;4842632;29;20405;-73
2021/08/22 00:58:04;;;;;;;22.08;12.98;;;15.70;93.80;;;;;;4844034;29;20045;-74
2021/08/22 01:00:32;;;;;;;23.02;13.25;;;15.70;93.90;;;;;;4828565;29;20053;-73
2021/08/22 01:03:34;;;;;;;19.73;12.13;;;15.60;93.90;;;;;;4820248;29;20515;-74
2021/08/22 01:06:21;;;;;;;23.98;13.20;;;15.60;93.90;;;;;;4819908;29;20054;-72
2021/08/22 01:09:00;;;;;;;21.73;11.07;;;15.50;93.90;;;;;;4821034;29;20050;-73
2021/08/22 01:11:32;;;;;;;15.32;11.65;;;15.40;93.90;;;;;;4835587;29;20069;-72
2021/08/22 01:14:10;;;;;;;15.60;11.07;;;15.40;93.90;;;;;;4821724;29;20054;-72
2021/08/22 01:16:48;;;;;;;16.60;10.52;;;15.40;93.90;;;;;;4821377;29;20070;-73
2021/08/22 01:19:44;;;;;;;20.02;11.13;;;15.30;93.90;;;;;;4821236;29;20054;-74
2021/08/22 01:22:15;;;;;;;23.50;11.82;;;15.30;93.90;;;;;;4820455;29;20680;-72
2021/08/22 01:24:44;;;;;;;18.63;10.75;;;15.30;93.90;;;;;;4820651;29;20053;-73
2021/08/22 01:27:13;;;;;;;16.27;11.30;;;15.20;94.00;;;;;;4804635;29;20054;-74
2021/08/22 01:29:56;;;;;;;21.80;11.90;;;15.20;94.00;;;;;;4835389;29;20424;-74
2021/08/22 01:32:36;;;;;;;22.05;12.25;;;15.10;94.00;;;;;;4820683;29;20382;-74
2021/08/22 01:35:07;;;;;;;20.40;11.23;;;15.10;94.00;;;;;;4835288;29;20533;-73
2021/08/22 01:37:37;;;;;;;16.73;11.15;;;15.10;94.10;;;;;;4820521;29;20073;-73
2021/08/22 01:40:07;;;;;;;20.85;11.10;;;15.00;94.20;;;;;;4834044;29;20046;-74
2021/08/22 01:42:37;;;;;;;18.80;12.07;;;15.00;94.20;;;;;;4820797;29;20665;-73
2021/08/22 01:45:07;;;;;;;16.75;10.68;;;15.00;94.30;;;;;;4834372;29;20513;-74
2021/08/22 01:47:36;;;;;;;19.13;10.50;;;15.10;94.20;;;;;;4821013;29;20042;-73
2021/08/22 01:50:05;;;;;;;18.67;10.52;;;15.10;94.20;;;;;;4820848;29;20061;-73
2021/08/22 01:52:33;;;;;;;15.32;10.30;;;15.10;94.10;;;;;;4820044;29;20058;-73
2021/08/22 01:55:06;;;;;;;12.93;9.10;;;15.10;94.10;;;;;;4820562;29;20066;-72
2021/08/22 01:57:44;;;;;;;12.88;8.32;;;15.20;94.00;;;;;;4821057;29;20065;-72
2021/08/22 02:00:13;;;;;;;15.45;8.50;;;15.20;93.90;;;;;;4820871;29;20054;-73
2021/08/22 02:03:03;;;;;;;15.77;9.02;;;15.20;93.80;;;;;;4818939;29;20412;-73
2021/08/22 02:05:36;;;;;;;15.48;9.15;;;15.20;93.80;;;;;;4816663;29;20054;-73
2021/08/22 02:08:12;;;;;;;13.73;9.05;;;15.20;93.80;;;;;;4821289;29;20054;-73
2021/08/22 02:10:58;;;;;;;12.68;9.13;;;15.20;93.70;;;;;;4819163;29;20077;-73
2021/08/22 02:13:34;;;;;;;12.27;9.20;;;15.10;93.60;;;;;;4819553;29;20054;-73
2021/08/22 02:16:06;;;;;;;17.38;9.23;;;15.20;93.60;;;;;;4805444;29;20065;-73
2021/08/22 02:18:37;;;;;;;14.63;10.02;;;15.10;93.60;;;;;;4822695;29;20050;-73
2021/08/22 02:21:05;;;;;;;20.70;10.55;;;15.10;93.60;;;;;;4823457;29;20416;-73
2021/08/22 02:23:34;;;;;;;22.55;11.65;;;15.10;93.60;;;;;;4822362;29;20057;-73
2021/08/22 02:26:02;;;;;;;17.05;10.95;;;15.10;93.60;;;;;;4804547;29;20417;-73
2021/08/22 02:28:31;;;;;;;19.88;11.13;;;15.10;93.60;;;;;;4823118;29;20050;-73
2021/08/22 02:30:59;;;;;;;23.08;11.98;;;15.20;93.60;;;;;;4824349;29;20060;-73
2021/08/22 02:33:27;;;;;;;21.10;11.90;;;15.20;93.60;;;;;;4827107;29;20512;-73
2021/08/22 02:35:54;;;;;;;19.67;13.05;;;15.20;93.60;;;;;;4806112;29;20058;-73
2021/08/22 02:38:22;;;;;;;22.30;13.32;;;15.20;93.70;;;;;;4817895;29;20054;-73
2021/08/22 02:40:50;;;;;;;20.50;13.38;;;15.20;93.70;;;;;;4823058;29;20519;-74
2021/08/22 02:43:17;;;;;;;24.02;13.23;;;15.20;93.70;;;;;;4824063;29;20061;-73
2021/08/22 02:45:45;;;;;;;21.40;12.20;;;15.20;93.70;;;;;;4823777;29;21350;-74
2021/08/22 02:48:13;;;;;;;22.05;12.52;;;15.20;93.70;;;;;;4823056;29;20113;-74
2021/08/22 02:50:41;;;;;;;20.00;12.32;;;15.20;93.70;;;;;;4821726;29;20054;-74
2021/08/22 02:53:10;;;;;;;21.33;11.80;;;15.20;93.60;;;;;;4822526;29;20058;-74
2021/08/22 02:55:37;;;;;;;17.52;10.70;;;15.30;93.70;;;;;;4823999;29;20050;-73
2021/08/22 02:58:05;;;;;;;22.33;10.45;;;15.30;93.70;;;;;;4824042;29;20051;-73
2021/08/22 03:00:33;;;;;;;17.45;9.68;;;15.30;93.60;;;;;;4823933;29;20046;-74
2021/08/22 03:03:01;;;;;;;19.50;9.82;;;15.30;93.60;;;;;;4823002;29;20054;-73
2021/08/22 03:05:28;;;;;;;18.10;9.27;;;15.30;93.50;;;;;;4823308;29;20049;-73
2021/08/22 03:07:56;;;;;;;12.45;7.85;;;15.20;93.50;;;;;;4822739;29;20050;-73
2021/08/22 03:10:24;;;;;;;12.93;7.50;;;15.20;93.50;;;;;;4823385;29;20050;-73
2021/08/22 03:12:52;;;;;;;13.60;7.07;;;15.30;93.50;;;;;;4823343;29;20497;-73
2021/08/22 03:15:26;;;;;;;14.80;7.53;;;15.20;93.40;;;;;;4823199;29;20488;-74
2021/08/22 03:17:53;;;;;;;17.35;7.28;;;15.20;93.20;;;;;;4822773;29;20521;-74
2021/08/22 03:20:21;;;;;;;17.35;6.82;;;15.20;93.20;;;;;;4823414;29;20515;-73
2021/08/22 03:22:49;;;;;;;14.50;6.50;;;15.10;93.10;;;;;;4823172;29;20057;-73
2021/08/22 03:25:17;;;;;;;19.10;7.18;;;15.10;93.10;;;;;;4822748;29;20504;-73
2021/08/22 03:27:45;;;;;;;12.85;6.60;;;15.10;93.00;;;;;;4828209;29;20046;-73
2021/08/22 03:30:13;;;;;;;16.35;7.20;;;15.10;92.90;;;;;;4840531;29;20042;-74
2021/08/22 03:32:40;;;;;;;13.63;6.60;;;15.10;92.90;;;;;;4832903;29;20055;-74
2021/08/22 03:35:08;;;;;;;17.92;6.90;;;15.00;92.90;;;;;;4822024;29;20046;-74
2021/08/22 03:37:36;;;;;;;9.80;6.28;;;15.10;92.90;;;;;;4822836;29;20069;-74
2021/08/22 03:40:04;;;;;;;12.02;6.68;;;15.00;92.90;;;;;;4837606;29;20057;-75
2021/08/22 03:42:32;;;;;;;13.10;6.32;;;15.00;92.80;;;;;;4830072;29;20061;-73
2021/08/22 03:45:00;;;;;;;12.43;6.38;;;15.00;92.70;;;;;;4822870;29;20055;-73
2021/08/22 03:47:27;;;;;;;13.95;6.72;;;15.00;92.70;;;;;;4823334;29;20057;-74
2021/08/22 03:49:55;;;;;;;12.95;6.80;;;15.00;92.70;;;;;;4823209;29;20049;-74
2021/08/22 03:52:22;;;;;;;12.50;6.43;;;14.90;92.60;;;;;;4822822;29;20049;-74
2021/08/22 03:54:50;;;;;;;13.43;6.80;;;14.90;92.70;;;;;;4823159;29;20162;-74
2021/08/22 03:57:18;;;;;;;11.35;6.97;;;14.90;92.60;;;;;;4821062;29;20050;-73
2021/08/22 03:59:46;;;;;;;17.55;7.90;;;14.90;92.60;;;;;;4823041;29;20481;-73
2021/08/22 04:02:15;;;;;;;19.55;9.05;;;14.90;92.60;;;;;;4806510;29;20050;-72
2021/08/22 04:05:16;;;;;;;15.80;8.80;;;14.80;92.60;;;;;;4825400;29;20164;-72
2021/08/22 04:07:48;;;;;;;18.27;9.55;;;14.80;92.70;;;;;;4826454;29;20401;-72
2021/08/22 04:10:16;;;;;;;18.10;11.00;;;14.80;92.80;;;;;;4826603;29;20492;-72
2021/08/22 04:12:44;;;;;;;26.75;14.10;;;14.80;92.80;;;;;;4825084;29;20054;-72
2021/08/22 04:15:11;;;;;;;31.48;14.93;;;14.80;93.00;;;;;;4824992;29;20050;-71
2021/08/22 04:17:39;;;;;;;27.77;15.32;;;14.80;93.00;;;;;;4826520;29;20061;-71
2021/08/22 04:20:07;;;;;;;30.00;17.60;;;14.80;93.10;;;;;;4826494;29;20050;-72
2021/08/22 04:22:37;;;;;;;33.63;17.40;;;14.70;93.10;;;;;;4825810;29;20051;-72
2021/08/22 04:25:10;;;;;;;32.00;18.95;;;14.80;93.20;;;;;;4826468;29;20046;-72
2021/08/22 04:27:40;;;;;;;29.20;18.95;;;14.80;93.30;;;;;;4826122;29;20055;-72
2021/08/22 04:30:10;;;;;;;36.05;20.02;;;14.70;93.40;;;;;;4826302;29;20050;-72
2021/08/22 04:32:38;;;;;;;36.50;20.02;;;14.70;93.40;;;;;;4823470;29;20093;-72
2021/08/22 04:35:09;;;;;;;29.40;19.25;;;14.80;93.50;;;;;;4825227;29;20515;-72
2021/08/22 04:37:37;;;;;;;39.60;21.55;;;14.80;93.60;;;;;;4825760;29;20050;-72
2021/08/22 04:40:06;;;;;;;32.15;20.40;;;14.70;93.60;;;;;;4826083;29;20493;-72
2021/08/22 04:42:36;;;;;;;33.35;21.25;;;14.70;93.60;;;;;;4822750;29;20108;-72
2021/08/22 04:45:04;;;;;;;31.33;20.27;;;14.70;93.70;;;;;;4825057;29;20061;-71
2021/08/22 04:47:32;;;;;;;31.17;19.90;;;14.70;93.70;;;;;;4826014;29;20066;-72
2021/08/22 04:50:00;;;;;;;38.35;19.58;;;14.70;93.80;;;;;;4824529;29;20520;-72
2021/08/22 04:52:28;;;;;;;32.80;18.33;;;14.70;93.80;;;;;;4825694;29;20047;-73
2021/08/22 04:54:55;;;;;;;27.35;17.50;;;14.70;93.90;;;;;;4824681;29;20058;-72
2021/08/22 04:57:23;;;;;;;28.52;18.35;;;14.60;94.00;;;;;;4825953;29;20047;-72
2021/08/22 04:59:51;;;;;;;36.67;20.88;;;14.60;94.10;;;;;;4824740;29;20054;-73
2021/08/22 05:02:19;;;;;;;41.33;20.92;;;14.60;94.10;;;;;;4808738;29;20485;-72
2021/08/22 05:04:47;;;;;;;33.65;20.15;;;14.60;94.10;;;;;;4824055;29;20485;-72
2021/08/22 05:07:15;;;;;;;38.30;21.92;;;14.60;94.10;;;;;;4806186;29;20066;-72
2021/08/22 05:09:42;;;;;;;35.08;19.98;;;14.50;94.20;;;;;;4806272;29;20066;-72
2021/08/22 05:12:10;;;;;;;40.55;20.65;;;14.60;94.30;;;;;;4824692;29;20054;-72
2021/08/22 05:14:38;;;;;;;39.63;19.70;;;14.50;94.30;;;;;;4834298;29;20073;-72
2021/08/22 05:17:05;;;;;;;39.10;20.95;;;14.50;94.40;;;;;;4830780;29;20065;-72
2021/08/22 05:19:34;;;;;;;37.97;20.02;;;14.50;94.50;;;;;;4825148;29;20042;-72
2021/08/22 05:22:02;;;;;;;42.58;21.38;;;14.50;94.50;;;;;;4825112;29;20050;-72
2021/08/22 05:24:30;;;;;;;43.80;21.77;;;14.50;94.50;;;;;;4825463;29;20046;-72
2021/08/22 05:26:58;;;;;;;40.15;20.38;;;14.60;94.40;;;;;;4824999;29;20429;-73
2021/08/22 05:29:31;;;;;;;43.13;22.42;;;14.50;94.50;;;;;;4825781;29;20390;-73
2021/08/22 05:32:01;;;;;;;37.33;20.77;;;14.60;94.50;;;;;;4825434;29;20055;-73
2021/08/22 05:34:30;;;;;;;38.22;20.92;;;14.60;94.50;;;;;;4832402;29;20054;-74
2021/08/22 05:36:58;;;;;;;35.45;22.50;;;14.70;94.50;;;;;;4814830;29;20062;-73
2021/08/22 05:39:26;;;;;;;40.25;23.10;;;14.70;94.50;;;;;;4823600;29;20464;-73
2021/08/22 05:41:53;;;;;;;35.85;21.80;;;14.80;94.40;;;;;;4804234;29;20066;-72
2021/08/22 05:44:21;;;;;;;31.50;18.65;;;14.80;94.30;;;;;;4820116;29;20508;-73
2021/08/22 05:46:49;;;;;;;33.88;17.45;;;14.90;94.30;;;;;;4819858;29;20055;-73
2021/08/22 05:49:17;;;;;;;30.88;17.08;;;14.90;94.20;;;;;;4827527;29;20058;-73
2021/08/22 05:51:45;;;;;;;28.25;16.45;;;14.90;94.20;;;;;;4828889;29;20046;-72
2021/08/22 05:54:13;;;;;;;29.90;16.10;;;14.90;94.10;;;;;;4833080;29;20683;-72
2021/08/22 05:56:41;;;;;;;25.45;14.70;;;14.90;94.10;;;;;;4833178;29;20411;-73
2021/08/22 05:59:08;;;;;;;25.70;15.82;;;14.90;94.00;;;;;;4828373;29;20144;-73
2021/08/22 06:01:36;;;;;;;29.02;18.05;;;15.00;94.00;;;;;;4830563;29;20401;-73
2021/08/22 06:04:04;;;;;;;33.05;18.80;;;15.00;94.00;;;;;;4829698;29;20046;-72
2021/08/22 06:06:39;;;;;;;41.53;22.38;;;15.00;94.00;;;;;;4829418;29;20046;-73
2021/08/22 06:09:07;;;;;;;47.72;28.63;;;15.00;93.90;;;;;;4831180;29;20046;-72
2021/08/22 06:11:35;;;;;;;63.55;32.67;;;15.00;93.90;;;;;;4831312;29;20054;-76
2021/08/22 06:14:03;;;;;;;60.05;33.85;;;15.00;93.70;;;;;;4831935;29;20038;-72
2021/08/22 06:16:30;;;;;;;60.75;33.70;;;15.10;93.70;;;;;;4830912;29;20509;-72
2021/08/22 06:18:59;;;;;;;50.80;29.27;;;15.10;93.70;;;;;;4827539;29;20045;-73
2021/08/22 06:21:27;;;;;;;49.92;27.73;;;15.00;93.60;;;;;;4814369;29;20054;-74
2021/08/22 06:23:57;;;;;;;44.05;24.55;;;15.10;93.70;;;;;;4826149;29;20065;-74
2021/08/22 06:26:26;;;;;;;57.25;27.80;;;15.10;93.60;;;;;;4833156;29;20047;-73
2021/08/22 06:28:54;;;;;;;53.88;27.77;;;15.10;93.70;;;;;;4831167;29;20504;-73
2021/08/22 06:31:22;;;;;;;55.70;25.52;;;15.00;93.70;;;;;;4831284;29;20050;-72
2021/08/22 06:33:51;;;;;;;52.88;27.27;;;15.10;93.70;;;;;;4830547;29;20065;-73
2021/08/22 06:36:19;;;;;;;60.53;29.35;;;15.10;93.70;;;;;;4826175;29;20043;-73
2021/08/22 06:38:48;;;;;;;55.67;27.45;;;15.10;93.70;;;;;;4853989;29;20050;-73
2021/08/22 06:41:16;;;;;;;56.28;28.80;;;15.10;93.70;;;;;;4811581;29;20408;-73
2021/08/22 06:43:44;;;;;;;56.08;29.35;;;15.10;93.60;;;;;;4831373;29;20047;-73
2021/08/22 06:46:11;;;;;;;58.88;30.17;;;15.10;93.60;;;;;;4829295;29;20058;-73
2021/08/22 06:48:39;;;;;;;59.63;31.30;;;15.00;93.60;;;;;;4815765;29;20061;-74
2021/08/22 06:51:07;;;;;;;59.40;31.27;;;15.10;93.60;;;;;;4849808;29;20054;-74
2021/08/22 06:53:35;;;;;;;62.55;32.83;;;15.10;93.60;;;;;;4826531;29;20046;-73
2021/08/22 06:56:03;;;;;;;76.90;35.28;;;15.00;93.60;;;;;;4853464;29;20062;-73
2021/08/22 06:58:30;;;;;;;73.43;33.17;;;15.00;93.60;;;;;;4827478;29;20050;-73
2021/08/22 07:00:58;;;;;;;68.95;31.30;;;15.00;93.70;;;;;;4832905;29;20046;-73
2021/08/22 07:03:26;;;;;;;69.88;31.38;;;15.00;93.70;;;;;;4831830;29;20046;-74
2021/08/22 07:05:54;;;;;;;71.85;30.20;;;15.10;93.70;;;;;;4827809;29;20053;-74
2021/08/22 07:08:22;;;;;;;69.97;30.40;;;15.10;93.70;;;;;;4827055;29;20046;-75
2021/08/22 07:10:50;;;;;;;65.90;30.60;;;15.10;93.70;;;;;;4828771;29;20069;-72
2021/08/22 07:13:18;;;;;;;70.75;32.40;;;15.10;93.70;;;;;;4843166;29;20046;-72
2021/08/22 07:15:49;;;;;;;72.40;32.15;;;15.10;93.70;;;;;;4823489;29;20050;-73
2021/08/22 07:18:21;;;;;;;62.83;31.27;;;15.10;93.70;;;;;;4835347;29;20073;-72
2021/08/22 07:20:51;;;;;;;60.72;31.58;;;15.10;93.60;;;;;;4832331;29;20370;-72
2021/08/22 07:23:20;;;;;;;54.78;27.73;;;15.10;93.60;;;;;;4828187;29;20050;-72
2021/08/22 07:25:47;;;;;;;48.28;23.48;;;15.20;93.60;;;;;;4835784;29;20053;-72
2021/08/22 07:28:15;;;;;;;41.08;21.45;;;15.20;93.50;;;;;;4829314;29;20519;-72
2021/08/22 07:30:47;;;;;;;24.45;14.57;;;15.20;93.50;;;;;;4828891;29;20057;-72
2021/08/22 07:33:15;;;;;;;25.38;13.77;;;15.20;93.40;;;;;;4825924;29;20050;-72
2021/08/22 07:35:43;;;;;;;26.67;12.57;;;15.20;93.40;;;;;;4825940;29;20042;-72
2021/08/22 07:38:10;;;;;;;16.83;10.43;;;15.30;93.40;;;;;;4832353;29;20066;-72
2021/08/22 07:40:39;;;;;;;18.25;9.73;;;15.30;93.30;;;;;;4828579;29;20042;-73
2021/08/22 07:43:06;;;;;;;19.75;9.75;;;15.30;93.30;;;;;;4830275;29;20061;-73
2021/08/22 07:45:34;;;;;;;15.65;8.98;;;15.30;93.20;;;;;;4829121;29;20058;-72
2021/08/22 07:48:02;;;;;;;18.38;10.50;;;15.30;93.10;;;;;;4830577;29;20057;-72
2021/08/22 07:50:30;;;;;;;21.38;10.50;;;15.30;93.10;;;;;;4831017;29;20052;-72
2021/08/22 07:52:58;;;;;;;17.63;10.00;;;15.30;93.10;;;;;;4813041;29;20049;-72
2021/08/22 07:55:26;;;;;;;14.30;10.18;;;15.30;93.10;;;;;;4830883;29;20047;-72
2021/08/22 07:57:54;;;;;;;18.05;10.80;;;15.30;93.10;;;;;;4848544;29;20062;-71
2021/08/22 08:00:22;;;;;;;20.20;11.15;;;15.30;93.10;;;;;;4827031;29;20504;-73
2021/08/22 08:02:50;;;;;;;16.02;11.02;;;15.40;93.10;;;;;;4829427;29;20042;-76
2021/08/22 08:05:19;;;;;;;17.17;10.02;;;15.40;93.10;;;;;;4827163;29;20049;-72
2021/08/22 08:07:47;;;;;;;13.40;9.68;;;15.40;92.90;;;;;;4828400;29;20050;-73
2021/08/22 08:10:17;;;;;;;15.15;9.68;;;15.50;92.90;;;;;;4832332;29;20058;-72
2021/08/22 08:12:45;;;;;;;13.57;8.85;;;15.60;92.80;;;;;;4815343;29;20073;-73
2021/08/22 08:15:13;;;;;;;11.90;7.53;;;15.60;92.80;;;;;;4831577;29;20042;-73
2021/08/22 08:17:40;;;;;;;11.90;8.30;;;15.70;92.70;;;;;;4828343;29;20058;-73
2021/08/22 08:20:10;;;;;;;13.18;8.40;;;15.70;92.50;;;;;;4832395;29;20056;-73
2021/08/22 08:22:39;;;;;;;13.63;10.10;;;15.80;92.50;;;;;;4829142;29;20515;-72
2021/08/22 08:25:06;;;;;;;11.40;9.15;;;15.80;92.30;;;;;;4826246;29;20049;-73
2021/08/22 08:27:34;;;;;;;11.25;8.80;;;15.90;92.10;;;;;;4826843;29;20054;-72
2021/08/22 08:30:03;;;;;;;13.32;8.75;;;15.90;92.00;;;;;;4825296;29;20497;-72
2021/08/22 08:32:31;;;;;;;10.15;7.18;;;16.00;91.90;;;;;;4827267;29;20054;-72
2021/08/22 08:34:59;;;;;;;11.38;7.28;;;16.20;92.00;;;;;;4825195;29;20042;-72
2021/08/22 08:37:27;;;;;;;9.52;6.65;;;16.30;91.70;;;;;;4850023;29;20050;-73
2021/08/22 08:39:55;;;;;;;8.52;6.78;;;16.40;91.50;;;;;;4829882;29;20389;-73
2021/08/22 08:42:37;;;;;;;7.28;5.45;;;16.40;91.20;;;;;;4830345;29;20054;-73
2021/08/22 08:45:09;;;;;;;7.72;6.43;;;16.40;91.20;;;;;;4828214;29;20054;-73
2021/08/22 08:47:38;;;;;;;9.82;6.35;;;16.40;91.00;;;;;;4825902;29;20046;-72
2021/08/22 08:50:31;;;;;;;9.35;6.57;;;16.50;91.00;;;;;;4831909;29;20719;-73
2021/08/22 08:53:13;;;;;;;7.47;6.22;;;16.50;90.80;;;;;;4830511;29;20412;-73
2021/08/22 08:55:44;;;;;;;7.90;5.72;;;16.50;90.80;;;;;;4832988;29;20160;-73
2021/08/22 08:58:11;;;;;;;5.88;4.60;;;16.50;90.70;;;;;;4831170;29;20050;-73
2021/08/22 09:00:41;;;;;;;6.30;3.97;;;16.60;90.40;;;;;;4853600;29;20077;-73
2021/08/22 09:03:14;;;;;;;6.28;3.60;;;16.60;90.00;;;;;;4832332;29;20397;-73
2021/08/22 09:05:57;;;;;;;5.68;3.90;;;16.60;90.10;;;;;;4835424;29;20415;-73
2021/08/22 09:08:42;;;;;;;4.15;3.20;;;16.60;90.30;;;;;;4829913;29;20485;-72
2021/08/22 09:11:48;;;;;;;5.07;3.65;;;16.70;90.20;;;;;;4825407;29;20054;-72
2021/08/22 09:14:53;;;;;;;4.25;3.50;;;16.80;90.10;;;;;;4820668;29;20058;-72
2021/08/22 09:17:42;;;;;;;5.22;3.45;;;16.80;89.80;;;;;;4811714;29;20427;-73
2021/08/22 09:20:31;;;;;;;5.28;3.40;;;16.80;89.70;;;;;;4832483;29;20055;-72
2021/08/22 09:23:23;;;;;;;4.80;4.20;;;16.80;89.50;;;;;;4828486;29;20449;-72
2021/08/22 09:26:28;;;;;;;5.47;4.22;;;16.80;89.50;;;;;;4832466;29;20050;-72
2021/08/22 09:29:50;;;;;;;5.82;3.90;;;16.80;89.60;;;;;;4831975;29;20062;-72
2021/08/22 09:32:56;;;;;;;4.75;4.10;;;16.70;89.60;;;;;;4830430;29;20167;-72
2021/08/22 09:35:46;;;;;;;5.88;5.38;;;16.80;89.60;;;;;;4850977;29;20050;-72
2021/08/22 09:38:19;;;;;;;9.13;5.60;;;16.80;89.60;;;;;;4832296;29;20061;-72
2021/08/22 09:41:18;;;;;;;7.35;6.57;;;16.90;89.50;;;;;;4833732;29;20392;-72
2021/08/22 09:43:57;;;;;;;7.75;7.00;;;17.00;89.30;;;;;;4830849;29;20073;-72
2021/08/22 09:46:56;;;;;;;12.07;8.23;;;17.20;89.20;;;;;;4832454;29;20050;-73
2021/08/22 09:50:01;;;;;;;9.48;8.57;;;17.30;89.20;;;;;;4833464;29;20053;-72
2021/08/22 09:52:50;;;;;;;12.57;9.60;;;17.30;88.90;;;;;;4833919;29;20050;-72
2021/08/22 09:55:38;;;;;;;14.82;10.73;;;17.40;88.60;;;;;;4816411;29;20065;-73
2021/08/22 09:58:24;;;;;;;13.50;11.25;;;17.50;88.60;;;;;;4828995;29;20046;-72
2021/08/22 10:01:10;;;;;;;9.75;8.85;;;17.70;88.40;;;;;;4832031;29;20728;-73
2021/08/22 10:04:00;;;;;;;11.10;10.00;;;17.90;87.80;;;;;;4828171;29;20412;-72
2021/08/22 10:07:00;;;;;;;13.43;8.77;;;17.80;87.40;;;;;;4851070;29;20061;-73
2021/08/22 10:09:49;;;;;;;11.82;10.70;;;17.80;87.30;;;;;;4833488;29;20050;-73
2021/08/22 10:12:17;;;;;;;11.13;10.13;;;17.80;87.40;;;;;;4830881;29;20058;-73
2021/08/22 10:14:45;;;;;;;10.75;9.85;;;17.60;87.40;;;;;;4832319;29;20052;-73
2021/08/22 10:17:22;;;;;;;13.30;10.50;;;17.60;87.30;;;;;;4832814;29;20058;-73
2021/08/22 10:19:53;;;;;;;11.90;10.80;;;17.50;87.40;;;;;;4831051;29;20054;-72
2021/08/22 10:22:30;;;;;;;11.80;10.73;;;17.50;87.50;;;;;;4848174;29;20396;-74
2021/08/22 10:25:06;;;;;;;12.40;11.02;;;17.50;87.50;;;;;;4830496;29;20061;-73
2021/08/22 10:27:34;;;;;;;12.05;10.90;;;17.40;87.60;;;;;;4832997;29;20062;-74
2021/08/22 10:30:02;;;;;;;11.93;10.20;;;17.30;87.90;;;;;;4832317;29;20058;-74
2021/08/22 10:32:34;;;;;;;12.98;9.55;;;17.30;88.10;;;;;;4833627;29;20707;-73
2021/08/22 10:35:11;;;;;;;11.68;9.07;;;17.50;88.20;;;;;;4827999;29;20061;-74
2021/08/22 10:37:44;;;;;;;10.23;9.20;;;17.60;88.10;;;;;;4835913;29;20050;-73
2021/08/22 10:40:24;;;;;;;8.57;7.68;;;17.80;87.80;;;;;;4831928;29;20061;-74
2021/08/22 10:43:04;;;;;;;7.10;6.50;;;17.90;87.60;;;;;;4830074;29;20050;-73
2021/08/22 10:45:54;;;;;;;6.35;5.72;;;18.20;87.20;;;;;;4830986;29;20054;-74
2021/08/22 10:48:21;;;;;;;7.38;6.68;;;18.30;86.10;;;;;;4831084;29;20524;-73
2021/08/22 10:51:07;;;;;;;6.10;5.60;;;18.50;85.80;;;;;;4835352;29;20058;-73
2021/08/22 10:53:36;;;;;;;8.07;5.63;;;18.50;85.30;;;;;;4851504;29;20053;-73
2021/08/22 10:56:29;;;;;;;6.28;5.53;;;18.50;85.50;;;;;;4828461;29;20058;-73
2021/08/22 10:58:57;;;;;;;9.25;4.97;;;18.70;85.40;;;;;;4825756;29;20065;-73
2021/08/22 11:01:27;;;;;;;5.70;4.28;;;18.80;84.60;;;;;;4830875;29;20065;-74
2021/08/22 11:04:17;;;;;;;4.53;4.10;;;18.80;83.90;;;;;;4830033;29;20069;-74
2021/08/22 11:07:02;;;;;;;4.50;4.10;;;18.70;84.00;;;;;;4806169;29;20061;-75
2021/08/22 11:09:41;;;;;;;6.53;4.35;;;18.50;84.00;;;;;;4840732;29;20050;-74
2021/08/22 11:12:32;;;;;;;6.07;3.47;;;18.40;84.10;;;;;;4840269;29;20488;-73
2021/08/22 11:15:04;;;;;;;5.35;3.80;;;18.40;84.20;;;;;;4806085;29;20308;-73
2021/08/22 11:17:32;;;;;;;4.10;3.28;;;18.50;84.10;;;;;;4829511;29;20416;-73
2021/08/22 11:20:11;;;;;;;5.00;3.45;;;18.50;83.90;;;;;;4833747;29;20069;-73
2021/08/22 11:22:39;;;;;;;4.03;3.28;;;18.60;84.10;;;;;;4823583;29;20082;-73
2021/08/22 11:25:07;;;;;;;5.60;3.38;;;18.60;83.60;;;;;;4823714;29;20404;-73
2021/08/22 11:27:36;;;;;;;4.22;3.30;;;18.60;83.40;;;;;;4823385;29;20054;-74
2021/08/22 11:30:08;;;;;;;3.53;3.22;;;18.50;83.30;;;;;;4822176;29;20053;-74
2021/08/22 11:32:47;;;;;;;5.70;3.45;;;18.50;83.60;;;;;;4821767;29;20050;-73
2021/08/22 11:35:17;;;;;;;4.75;3.70;;;18.50;83.70;;;;;;4805269;29;20062;-72
2021/08/22 11:37:45;;;;;;;5.88;3.40;;;18.50;83.90;;;;;;4805548;29;20063;-73
2021/08/22 11:40:16;;;;;;;3.30;3.00;;;18.50;84.10;;;;;;4805345;29;20453;-74
2021/08/22 11:42:49;;;;;;;3.90;2.78;;;18.40;84.20;;;;;;4822380;29;20053;-73
2021/08/22 11:45:21;;;;;;;5.07;2.72;;;18.30;84.20;;;;;;4837207;29;20058;-74
2021/08/22 11:47:51;;;;;;;4.05;3.00;;;18.30;83.50;;;;;;4837589;29;20042;-74
2021/08/22 11:50:23;;;;;;;3.92;2.85;;;18.20;83.70;;;;;;4811602;29;20050;-74
2021/08/22 11:52:53;;;;;;;3.70;2.88;;;18.20;84.10;;;;;;4836526;29;20058;-74
2021/08/22 11:55:23;;;;;;;3.40;3.10;;;18.40;84.20;;;;;;4827358;29;20496;-74
2021/08/22 11:57:50;;;;;;;3.65;2.80;;;18.60;83.90;;;;;;4823605;29;20057;-73
2021/08/22 12:00:19;;;;;;;2.58;1.92;;;18.70;83.50;;;;;;4820833;29;20077;-74
2021/08/22 12:03:02;;;;;;;2.53;2.22;;;18.90;81.80;;;;;;4822624;29;20413;-74
2021/08/22 12:05:32;;;;;;;2.13;1.92;;;19.00;81.10;;;;;;4823214;29;20051;-74
2021/08/22 12:08:12;;;;;;;2.85;2.10;;;19.00;81.00;;;;;;4822772;29;20042;-73
2021/08/22 12:10:41;;;;;;;4.25;2.03;;;19.10;81.00;;;;;;4822044;29;20061;-74
2021/08/22 12:13:26;;;;;;;2.75;1.90;;;19.20;80.60;;;;;;4822896;29;20516;-74
2021/08/22 12:15:54;;;;;;;3.15;2.30;;;19.30;80.00;;;;;;4822893;29;20054;-73
2021/08/22 12:18:31;;;;;;;3.33;1.70;;;19.30;79.80;;;;;;4821604;29;20050;-73
2021/08/22 12:21:14;;;;;;;1.75;1.65;;;19.30;79.40;;;;;;4818672;29;20081;-73
2021/08/22 12:23:44;;;;;;;3.92;2.15;;;19.20;78.50;;;;;;4835745;29;20504;-74
2021/08/22 12:26:30;;;;;;;2.97;1.85;;;19.20;78.40;;;;;;4827331;29;20042;-74
2021/08/22 12:29:08;;;;;;;2.92;2.72;;;19.30;78.40;;;;;;4825464;29;20043;-74
2021/08/22 12:31:42;;;;;;;4.65;2.70;;;19.40;78.70;;;;;;4824911;29;20093;-75
2021/08/22 12:34:17;;;;;;;4.55;2.75;;;19.60;77.80;;;;;;4836168;29;20050;-73
2021/08/22 12:36:46;;;;;;;3.35;3.05;;;19.60;77.80;;;;;;4825912;29;20050;-73
2021/08/22 12:39:19;;;;;;;3.58;3.25;;;19.60;77.60;;;;;;4835226;29;20061;-73
2021/08/22 12:41:51;;;;;;;4.20;3.90;;;19.50;77.70;;;;;;4835014;29;20421;-73
2021/08/22 12:44:29;;;;;;;4.60;4.18;;;19.30;77.50;;;;;;4855290;29;20062;-73
2021/08/22 12:47:04;;;;;;;4.72;4.25;;;19.10;78.10;;;;;;4820813;29;20050;-75
2021/08/22 12:49:36;;;;;;;4.68;4.38;;;18.80;78.90;;;;;;4842437;29;20142;-74
2021/08/22 12:52:06;;;;;;;4.40;4.05;;;18.70;79.70;;;;;;4831023;29;20054;-74
2021/08/22 12:54:37;;;;;;;3.83;3.47;;;18.60;80.30;;;;;;4837465;29;20053;-73
2021/08/22 12:57:05;;;;;;;4.05;3.40;;;18.50;80.40;;;;;;4813892;29;20058;-74
2021/08/22 12:59:33;;;;;;;3.50;3.20;;;18.50;80.60;;;;;;4823727;29;20054;-74